createdAt,value
2022-10-23T00:01:45.101Z,70.45
2022-10-23T00:04:17.211Z,70.47
2022-10-23T00:06:46.628Z,70.57
2022-10-23T00:09:17.802Z,70.45
2022-10-23T00:11:47.946Z,70.45
2022-10-23T00:14:18.147Z,70.41
2022-10-23T00:16:46.718Z,70.57
2022-10-23T00:19:14.809Z,70.59
2022-10-23T00:21:42.841Z,70.59
2022-10-23T00:24:10.627Z,70.46
2022-10-23T00:26:40.801Z,70.38
2022-10-23T00:29:10.433Z,70.35
2022-10-23T00:31:38.789Z,70.55
2022-10-23T00:34:08.660Z,70.60
2022-10-23T00:36:37.896Z,70.48
2022-10-23T00:39:06.368Z,70.65
2022-10-23T00:41:35.236Z,70.64
2022-10-23T00:44:31.645Z,70.43
2022-10-23T00:47:00.187Z,70.39
2022-10-23T00:49:28.538Z,70.45
2022-10-23T00:52:01.366Z,70.77
2022-10-23T00:54:33.016Z,70.82
2022-10-23T00:57:03.000Z,71.03
2022-10-23T00:59:31.817Z,70.93
2022-10-23T01:02:00.488Z,70.72
2022-10-23T01:04:30.067Z,70.52
2022-10-23T01:06:58.243Z,70.30
2022-10-23T01:09:36.732Z,70.30
2022-10-23T01:12:33.299Z,70.30
2022-10-23T01:15:27.621Z,70.08
2022-10-23T01:18:05.011Z,70.02
2022-10-23T01:20:40.791Z,70.00
2022-10-23T01:23:08.698Z,69.99
2022-10-23T01:26:11.016Z,69.89
2022-10-23T01:28:58.671Z,69.86
2022-10-23T01:31:39.690Z,69.86
2022-10-23T01:34:16.374Z,69.86
2022-10-23T01:36:48.965Z,69.85
2022-10-23T01:39:25.681Z,69.77
2022-10-23T01:42:00.900Z,69.72
2022-10-23T01:44:43.302Z,69.79
2022-10-23T01:47:13.561Z,69.84
2022-10-23T01:49:58.963Z,69.82
2022-10-23T01:52:27.752Z,70.01
2022-10-23T01:55:00.416Z,69.96
2022-10-23T01:57:32.443Z,69.74
2022-10-23T02:00:07.524Z,69.75
2022-10-23T02:02:53.507Z,69.80
2022-10-23T02:05:30.943Z,69.89
2022-10-23T02:08:00.676Z,69.83
2022-10-23T02:11:02.015Z,69.84
2022-10-23T02:13:38.357Z,69.75
2022-10-23T02:16:26.553Z,69.55
2022-10-23T02:19:19.503Z,69.46
2022-10-23T02:22:08.179Z,69.44
2022-10-23T02:24:58.376Z,69.28
2022-10-23T02:27:35.134Z,69.37
2022-10-23T02:30:11.457Z,69.36
2022-10-23T02:32:45.174Z,69.36
2022-10-23T02:35:15.164Z,69.37
2022-10-23T02:37:43.651Z,69.24
2022-10-23T02:40:11.988Z,69.15
2022-10-23T02:43:08.016Z,69.14
2022-10-23T02:45:43.909Z,68.97
2022-10-23T02:48:47.493Z,69.15
2022-10-23T02:51:41.413Z,69.09
2022-10-23T02:54:48.712Z,69.05
2022-10-23T02:57:41.895Z,69.38
2022-10-23T03:00:15.291Z,69.54
2022-10-23T03:02:49.074Z,69.42
2022-10-23T03:05:22.558Z,69.41
2022-10-23T03:07:50.809Z,69.48
2022-10-23T03:10:19.534Z,69.56
2022-10-23T03:12:48.925Z,69.58
2022-10-23T03:15:17.683Z,69.56
2022-10-23T03:17:45.569Z,69.57
2022-10-23T03:20:16.506Z,69.64
2022-10-23T03:22:45.996Z,69.60
2022-10-23T03:25:14.558Z,69.50
2022-10-23T03:27:42.698Z,69.37
2022-10-23T03:30:16.263Z,69.39
2022-10-23T03:32:44.722Z,69.29
2022-10-23T03:35:13.031Z,69.44
2022-10-23T03:37:41.434Z,69.51
2022-10-23T03:40:10.440Z,69.54
2022-10-23T03:42:38.486Z,69.56
2022-10-23T03:45:06.703Z,69.43
2022-10-23T03:47:35.569Z,69.32
2022-10-23T03:50:04.303Z,69.32
2022-10-23T03:52:34.249Z,69.08
2022-10-23T03:55:02.784Z,68.98
2022-10-23T03:57:30.917Z,69.07
2022-10-23T03:59:59.053Z,68.99
2022-10-23T04:02:29.533Z,68.97
2022-10-23T04:04:58.006Z,68.92
2022-10-23T04:07:25.844Z,69.02
2022-10-23T04:09:55.314Z,69.10
2022-10-23T04:12:23.341Z,69.16
2022-10-23T04:14:52.707Z,69.15
2022-10-23T04:17:20.544Z,69.07
2022-10-23T04:19:50.569Z,68.95
2022-10-23T04:22:18.581Z,69.02
2022-10-23T04:24:48.323Z,68.96
2022-10-23T04:27:19.314Z,69.04
2022-10-23T04:29:47.492Z,69.03
2022-10-23T04:32:15.790Z,69.05
2022-10-23T04:34:45.177Z,69.10
2022-10-23T04:37:14.020Z,69.07
2022-10-23T04:39:42.128Z,69.07
2022-10-23T04:42:14.569Z,69.15
2022-10-23T04:44:42.539Z,69.16
2022-10-23T04:47:10.472Z,69.08
2022-10-23T04:49:47.885Z,69.14
2022-10-23T04:52:23.444Z,69.09
2022-10-23T04:55:15.916Z,68.83
2022-10-23T04:57:52.842Z,68.83
2022-10-23T05:00:24.804Z,68.93
2022-10-23T05:02:55.480Z,68.94
2022-10-23T05:05:23.797Z,69.05
2022-10-23T05:08:05.787Z,68.97
2022-10-23T05:10:53.809Z,68.77
2022-10-23T05:13:22.084Z,68.67
2022-10-23T05:15:51.594Z,68.42
2022-10-23T05:18:47.752Z,68.50
2022-10-23T05:21:26.124Z,68.34
2022-10-23T05:23:54.853Z,68.29
2022-10-23T05:26:23.443Z,68.35
2022-10-23T05:28:54.047Z,68.12
2022-10-23T05:31:25.292Z,68.11
2022-10-23T05:33:56.978Z,68.06
2022-10-23T05:36:26.588Z,67.90
2022-10-23T05:38:58.642Z,67.94
2022-10-23T05:41:28.592Z,67.99
2022-10-23T05:43:59.197Z,67.93
2022-10-23T05:46:53.576Z,68.06
2022-10-23T05:49:40.188Z,68.21
2022-10-23T05:52:26.654Z,68.13
2022-10-23T05:55:16.323Z,68.20
2022-10-23T05:57:52.654Z,68.36
2022-10-23T06:00:31.493Z,68.46
2022-10-23T06:03:11.783Z,68.57
2022-10-23T06:05:40.738Z,68.47
2022-10-23T06:08:33.525Z,68.39
2022-10-23T06:11:13.885Z,68.34
2022-10-23T06:13:46.459Z,68.28
2022-10-23T06:16:22.426Z,68.16
2022-10-23T06:18:51.273Z,68.11
2022-10-23T06:21:19.831Z,67.96
2022-10-23T06:23:49.594Z,67.86
2022-10-23T06:26:19.242Z,67.70
2022-10-23T06:29:04.807Z,67.53
2022-10-23T06:31:33.115Z,67.30
2022-10-23T06:34:01.239Z,67.28
2022-10-23T06:36:30.819Z,66.85
2022-10-23T06:39:06.017Z,66.77
2022-10-23T06:42:06.765Z,66.86
2022-10-23T06:44:58.010Z,66.97
2022-10-23T06:47:44.433Z,67.08
2022-10-23T06:50:31.620Z,67.05
2022-10-23T06:53:01.917Z,66.96
2022-10-23T06:55:30.302Z,66.91
2022-10-23T06:57:58.869Z,66.81
2022-10-23T07:00:26.966Z,66.51
2022-10-23T07:02:56.089Z,66.43
2022-10-23T07:05:24.162Z,66.35
2022-10-23T07:07:52.567Z,66.27
2022-10-23T07:10:25.222Z,66.15
2022-10-23T07:13:12.824Z,66.13
2022-10-23T07:15:45.411Z,65.99
2022-10-23T07:18:17.065Z,65.98
2022-10-23T07:21:03.956Z,66.01
2022-10-23T07:23:32.765Z,65.68
2022-10-23T07:26:17.143Z,65.69
2022-10-23T07:28:46.830Z,65.88
2022-10-23T07:31:18.394Z,66.05
2022-10-23T07:34:06.466Z,66.05
2022-10-23T07:36:35.390Z,66.00
2022-10-23T07:39:04.115Z,65.97
2022-10-23T07:41:32.479Z,65.90
2022-10-23T07:44:00.501Z,65.88
2022-10-23T07:46:28.878Z,65.72
2022-10-23T07:48:56.803Z,65.46
2022-10-23T07:51:24.720Z,65.41
2022-10-23T07:53:57.019Z,65.38
2022-10-23T07:56:41.679Z,65.17
2022-10-23T07:59:14.988Z,65.44
2022-10-23T08:01:51.503Z,65.61
2022-10-23T08:04:23.471Z,65.67
2022-10-23T08:07:01.102Z,65.74
2022-10-23T08:09:31.325Z,65.78
2022-10-23T08:11:59.422Z,65.93
2022-10-23T08:14:28.622Z,65.88
2022-10-23T08:16:56.579Z,65.78
2022-10-23T08:19:57.025Z,65.72
2022-10-23T08:22:26.563Z,65.72
2022-10-23T08:24:55.189Z,65.54
2022-10-23T08:27:23.494Z,65.60
2022-10-23T08:29:51.236Z,65.69
2022-10-23T08:32:19.329Z,65.63
2022-10-23T08:34:58.830Z,65.97
2022-10-23T08:37:28.512Z,66.33
2022-10-23T08:39:57.915Z,66.21
2022-10-23T08:42:50.304Z,66.19
2022-10-23T08:45:36.016Z,66.23
2022-10-23T08:48:31.319Z,66.07
2022-10-23T08:51:41.940Z,65.87
2022-10-23T08:54:21.017Z,65.87
2022-10-23T08:56:55.073Z,65.73
2022-10-23T08:59:28.504Z,65.86
2022-10-23T09:02:02.602Z,65.88
2022-10-23T09:04:31.932Z,65.80
2022-10-23T09:07:05.780Z,65.66
2022-10-23T09:10:06.177Z,65.61
2022-10-23T09:12:34.300Z,65.57
2022-10-23T09:15:08.462Z,65.46
2022-10-23T09:17:41.872Z,65.33
2022-10-23T09:20:23.267Z,65.29
2022-10-23T09:22:58.419Z,65.35
2022-10-23T09:25:34.319Z,65.33
2022-10-23T09:28:05.381Z,65.13
2022-10-23T09:30:41.706Z,65.02
2022-10-23T09:33:20.093Z,64.94
2022-10-23T09:36:14.075Z,65.05
2022-10-23T09:38:45.080Z,64.99
2022-10-23T09:41:12.922Z,64.87
2022-10-23T09:43:41.270Z,65.10
2022-10-23T09:46:11.882Z,64.89
2022-10-23T09:48:42.480Z,64.70
2022-10-23T09:51:19.979Z,64.79
2022-10-23T09:53:55.351Z,64.86
2022-10-23T09:56:24.709Z,65.05
2022-10-23T09:59:00.330Z,65.10
2022-10-23T10:01:32.780Z,65.00
2022-10-23T10:04:39.352Z,65.16
2022-10-23T10:07:19.605Z,65.08
2022-10-23T10:09:48.096Z,64.90
2022-10-23T10:12:50.040Z,65.07
2022-10-23T10:15:34.778Z,65.26
2022-10-23T10:18:25.785Z,65.29
2022-10-23T10:21:12.775Z,65.39
2022-10-23T10:23:50.620Z,65.55
2022-10-23T10:26:44.381Z,65.86
2022-10-23T10:29:58.593Z,65.81
2022-10-23T10:32:43.510Z,65.91
2022-10-23T10:35:25.716Z,65.88
2022-10-23T10:38:11.728Z,65.61
2022-10-23T10:40:51.789Z,65.48
2022-10-23T10:43:34.365Z,65.39
2022-10-23T10:46:32.088Z,65.17
2022-10-23T10:49:11.078Z,64.92
2022-10-23T10:52:19.625Z,64.66
2022-10-23T10:55:12.380Z,64.50
2022-10-23T10:57:45.346Z,64.60
2022-10-23T11:00:18.096Z,64.56
2022-10-23T11:02:49.576Z,64.57
2022-10-23T11:05:33.858Z,64.67
2022-10-23T11:08:11.971Z,64.46
2022-10-23T11:10:44.601Z,64.28
2022-10-23T11:13:23.487Z,64.30
2022-10-23T11:18:28.758Z,64.34
2022-10-23T11:21:08.496Z,64.57
2022-10-23T11:24:04.252Z,64.55
2022-10-23T11:26:32.039Z,64.60
2022-10-23T11:29:19.167Z,64.56
2022-10-23T11:32:01.949Z,64.67
2022-10-23T11:34:52.155Z,64.53
2022-10-23T11:37:21.149Z,64.53
2022-10-23T11:40:22.420Z,64.32
2022-10-23T11:42:51.634Z,63.96
2022-10-23T11:45:37.259Z,63.59
2022-10-23T11:48:26.621Z,63.61
2022-10-23T11:50:55.761Z,63.65
2022-10-23T11:53:32.698Z,63.70
2022-10-23T11:56:23.601Z,63.86
2022-10-23T11:58:59.272Z,63.84
2022-10-23T12:01:45.860Z,63.45
2022-10-23T12:04:13.893Z,63.34
2022-10-23T12:06:46.608Z,63.00
2022-10-23T12:09:41.305Z,62.89
2022-10-23T12:12:09.047Z,63.01
2022-10-23T12:14:49.165Z,62.87
2022-10-23T12:17:23.244Z,62.80
2022-10-23T12:19:55.994Z,62.74
2022-10-23T12:22:32.943Z,62.35
2022-10-23T12:25:08.610Z,61.92
2022-10-23T12:27:59.233Z,61.82
2022-10-23T12:30:42.499Z,61.71
2022-10-23T12:33:20.014Z,61.51
2022-10-23T12:36:04.299Z,61.32
2022-10-23T12:38:36.336Z,61.35
2022-10-23T12:41:17.040Z,61.57
2022-10-23T12:43:53.883Z,61.65
2022-10-23T12:46:41.272Z,61.47
2022-10-23T12:49:19.561Z,61.46
2022-10-23T12:52:14.555Z,61.88
2022-10-23T12:54:42.670Z,61.09
2022-10-23T12:57:27.338Z,60.69
2022-10-23T13:00:03.649Z,60.43
2022-10-23T13:02:34.053Z,59.97
2022-10-23T13:05:08.108Z,59.54
2022-10-23T13:07:42.733Z,59.39
2022-10-23T13:10:15.345Z,58.96
2022-10-23T13:13:02.838Z,58.67
2022-10-23T13:15:45.511Z,58.73
2022-10-23T13:18:15.716Z,58.87
2022-10-23T13:20:57.642Z,58.96
2022-10-23T13:23:31.454Z,58.61
2022-10-23T13:26:02.624Z,58.58
2022-10-23T13:28:42.168Z,58.70
2022-10-23T13:31:10.163Z,59.03
2022-10-23T13:33:44.096Z,59.23
2022-10-23T13:36:14.882Z,59.33
2022-10-23T13:38:59.221Z,59.35
2022-10-23T13:41:31.358Z,59.34
2022-10-23T13:43:59.172Z,59.19
2022-10-23T13:46:27.261Z,59.17
2022-10-23T13:48:55.265Z,59.10
2022-10-23T13:51:26.449Z,59.09
2022-10-23T13:53:56.506Z,59.03
2022-10-23T13:56:26.744Z,59.03
2022-10-23T13:58:54.544Z,59.20
2022-10-23T14:01:26.869Z,59.25
2022-10-23T14:03:56.879Z,59.39
2022-10-23T14:06:25.204Z,59.54
2022-10-23T14:08:53.300Z,59.47
2022-10-23T14:11:21.625Z,59.26
2022-10-23T14:13:50.135Z,59.25
2022-10-23T14:16:30.534Z,59.00
2022-10-23T14:18:58.581Z,59.02
2022-10-23T14:21:26.683Z,59.12
2022-10-23T14:23:54.660Z,59.19
2022-10-23T14:26:25.781Z,59.27
2022-10-23T14:28:55.638Z,59.44
2022-10-23T14:31:24.430Z,59.49
2022-10-23T14:33:58.920Z,59.46
2022-10-23T14:36:31.073Z,59.54
2022-10-23T14:39:06.888Z,59.57
2022-10-23T14:41:35.162Z,59.72
2022-10-23T14:44:02.991Z,60.04
2022-10-23T14:46:31.221Z,60.58
2022-10-23T14:49:02.316Z,60.95
2022-10-23T14:51:30.969Z,61.50
2022-10-23T14:54:06.960Z,61.84
2022-10-23T14:56:38.016Z,61.93
2022-10-23T14:59:06.587Z,62.12
2022-10-23T15:01:48.413Z,62.40
2022-10-23T15:04:22.398Z,62.60
2022-10-23T15:06:50.241Z,62.62
2022-10-23T15:09:20.325Z,62.70
2022-10-23T15:11:48.723Z,63.01
2022-10-23T15:14:16.544Z,63.01
2022-10-23T15:16:44.420Z,63.05
2022-10-23T15:19:18.199Z,63.09
2022-10-23T15:21:48.078Z,63.14
2022-10-23T15:24:17.912Z,63.25
2022-10-23T15:26:45.734Z,63.29
2022-10-23T15:29:15.126Z,63.40
2022-10-23T15:31:47.972Z,63.48
2022-10-23T15:34:21.032Z,63.46
2022-10-23T15:36:49.258Z,63.32
2022-10-23T15:39:20.642Z,63.25
2022-10-23T15:41:51.586Z,63.24
2022-10-23T15:44:21.019Z,63.29
2022-10-23T15:46:49.776Z,63.23
2022-10-23T15:49:19.285Z,66.32
2022-10-23T15:51:47.281Z,66.67
2022-10-23T15:54:19.205Z,64.62
2022-10-23T15:56:50.068Z,63.63
2022-10-23T15:59:20.743Z,63.51
2022-10-23T16:01:49.022Z,63.43
2022-10-23T16:04:18.015Z,63.49
2022-10-23T16:06:46.101Z,63.53
2022-10-23T16:09:14.290Z,63.53
2022-10-23T16:11:43.413Z,63.41
2022-10-23T16:14:16.686Z,63.15
2022-10-23T16:16:44.921Z,63.23
2022-10-23T16:19:13.263Z,63.13
2022-10-23T16:21:42.031Z,63.13
2022-10-23T16:24:10.575Z,63.03
2022-10-23T16:26:39.314Z,63.01
2022-10-23T16:29:09.312Z,63.03
2022-10-23T16:31:37.821Z,63.32
2022-10-23T16:34:06.691Z,63.41
2022-10-23T16:36:35.090Z,63.31
2022-10-23T16:39:28.729Z,63.27
2022-10-23T16:42:15.332Z,63.31
2022-10-23T16:45:15.820Z,63.10
2022-10-23T16:47:43.833Z,63.15
2022-10-23T16:50:11.666Z,63.05
2022-10-23T16:52:39.666Z,63.09
2022-10-23T16:55:08.613Z,63.18
2022-10-23T16:57:36.865Z,63.14
2022-10-23T17:00:06.773Z,62.89
2022-10-23T17:02:37.520Z,62.90
2022-10-23T17:05:05.975Z,63.02
2022-10-23T17:07:33.887Z,63.11
2022-10-23T17:10:01.902Z,63.24
2022-10-23T17:12:30.177Z,63.22
2022-10-23T17:14:58.228Z,63.32
2022-10-23T17:17:26.002Z,63.10
2022-10-23T17:19:53.888Z,62.90
2022-10-23T17:22:21.937Z,63.03
2022-10-23T17:24:53.037Z,63.28
2022-10-23T17:27:22.290Z,63.43
2022-10-23T17:29:50.309Z,63.76
2022-10-23T17:32:18.174Z,63.82
2022-10-23T17:34:46.799Z,63.72
2022-10-23T17:37:14.721Z,63.64
2022-10-23T17:39:43.052Z,63.66
2022-10-23T17:42:11.584Z,63.63
2022-10-23T17:44:39.515Z,63.62
2022-10-23T17:47:07.667Z,63.68
2022-10-23T17:49:35.747Z,64.88
2022-10-23T17:52:04.762Z,64.52
2022-10-23T17:54:32.858Z,64.38
2022-10-23T17:57:00.627Z,64.26
2022-10-23T17:59:28.650Z,64.19
2022-10-23T18:01:59.090Z,64.23
2022-10-23T18:04:27.199Z,64.16
2022-10-23T18:06:55.117Z,64.14
2022-10-23T18:09:23.557Z,64.44
2022-10-23T18:11:52.017Z,64.65
2022-10-23T18:14:21.567Z,65.09
2022-10-23T18:16:51.212Z,65.53
2022-10-23T18:19:19.592Z,65.74
2022-10-23T18:21:48.241Z,66.13
2022-10-23T18:24:16.605Z,66.79
2022-10-23T18:26:46.308Z,67.04
2022-10-23T18:29:17.473Z,67.19
2022-10-23T18:31:48.327Z,67.17
2022-10-23T18:34:24.411Z,67.06
2022-10-23T18:36:54.570Z,67.36
2022-10-23T18:39:25.192Z,67.22
2022-10-23T18:41:56.203Z,67.25
2022-10-23T18:44:26.967Z,67.12
2022-10-23T18:46:57.344Z,67.08
2022-10-23T18:49:25.915Z,67.35
2022-10-23T18:51:54.293Z,67.21
2022-10-23T18:54:22.507Z,67.03
2022-10-23T18:56:50.338Z,66.75
2022-10-23T18:59:20.625Z,66.75
2022-10-23T19:01:49.203Z,66.50
2022-10-23T19:04:18.687Z,66.41
2022-10-23T19:06:49.010Z,66.51
2022-10-23T19:09:17.554Z,66.55
2022-10-23T19:11:45.846Z,66.61
2022-10-23T19:14:13.786Z,66.58
2022-10-23T19:16:55.701Z,66.55
2022-10-23T19:19:28.778Z,66.67
2022-10-23T19:21:57.713Z,66.70
2022-10-23T19:24:36.909Z,66.79
2022-10-23T19:27:05.605Z,66.89
2022-10-23T19:29:33.771Z,67.11
2022-10-23T19:32:01.853Z,67.21
2022-10-23T19:34:29.964Z,67.41
2022-10-23T19:36:58.057Z,67.62
2022-10-23T19:39:27.098Z,67.64
2022-10-23T19:41:55.271Z,67.71
2022-10-23T19:44:23.467Z,67.66
2022-10-23T19:46:51.406Z,67.64
2022-10-23T19:49:19.599Z,67.66
2022-10-23T19:51:51.183Z,67.81
2022-10-23T19:54:21.158Z,67.71
2022-10-23T19:56:49.366Z,67.60
2022-10-23T19:59:17.516Z,67.56
2022-10-23T20:01:48.217Z,67.65
2022-10-23T20:04:18.311Z,67.77
2022-10-23T20:06:47.636Z,67.83
2022-10-23T20:09:15.620Z,67.74
2022-10-23T20:11:45.600Z,67.83
2022-10-23T20:14:13.883Z,67.76
2022-10-23T20:16:45.195Z,67.82
2022-10-23T20:21:49.904Z,67.85
2022-10-23T20:24:20.568Z,67.96
2022-10-23T20:26:51.937Z,67.94
2022-10-23T20:29:20.012Z,67.87
2022-10-23T20:31:48.534Z,67.81
2022-10-23T20:34:17.555Z,67.75
2022-10-23T20:36:48.640Z,67.73
2022-10-23T20:39:24.599Z,67.68
2022-10-23T20:41:55.271Z,67.79
2022-10-23T20:44:23.646Z,67.83
2022-10-23T20:46:52.597Z,67.85
2022-10-23T20:49:21.394Z,67.98
2022-10-23T20:51:55.720Z,68.01
2022-10-23T20:54:26.118Z,67.97
2022-10-23T20:56:54.524Z,67.98
2022-10-23T20:59:22.935Z,68.02
2022-10-23T21:01:53.317Z,68.03
2022-10-23T21:04:26.561Z,68.05
2022-10-23T21:07:12.814Z,68.03
2022-10-23T21:09:40.687Z,68.03
2022-10-23T21:12:09.439Z,67.96
2022-10-23T21:14:37.404Z,68.07
2022-10-23T21:17:05.552Z,68.17
2022-10-23T21:19:33.795Z,68.13
2022-10-23T21:22:01.847Z,68.11
2022-10-23T21:24:29.721Z,68.13
2022-10-23T21:26:57.809Z,68.09
2022-10-23T21:29:25.633Z,68.25
2022-10-23T21:32:02.676Z,68.14
2022-10-23T21:34:31.086Z,68.13
2022-10-23T21:37:15.223Z,68.03
2022-10-23T21:39:44.607Z,68.05
2022-10-23T21:42:15.325Z,68.07
2022-10-23T21:44:43.317Z,67.91
2022-10-23T21:47:11.715Z,67.87
2022-10-23T21:49:39.473Z,67.76
2022-10-23T21:52:07.578Z,67.70
2022-10-23T21:54:35.385Z,67.86
2022-10-23T21:57:03.485Z,67.91
2022-10-23T21:59:35.600Z,67.91
2022-10-23T22:02:04.738Z,67.65
2022-10-23T22:04:32.721Z,67.64
2022-10-23T22:07:02.709Z,67.65
2022-10-23T22:09:31.989Z,67.72
2022-10-23T22:12:00.964Z,67.69
2022-10-23T22:14:28.928Z,67.70
2022-10-23T22:16:57.065Z,67.65
2022-10-23T22:19:25.517Z,67.73
2022-10-23T22:21:53.475Z,67.88
2022-10-23T22:24:21.611Z,67.85
2022-10-23T22:26:53.615Z,67.85
2022-10-23T22:29:24.392Z,67.76
2022-10-23T22:31:53.448Z,67.78
2022-10-23T22:34:47.737Z,67.82
2022-10-23T22:37:13.149Z,67.84
2022-10-23T22:39:41.369Z,67.88
2022-10-23T22:42:09.640Z,67.74
2022-10-23T22:44:37.912Z,67.68
2022-10-23T22:47:06.614Z,67.61
2022-10-23T22:49:34.451Z,67.53
2022-10-23T22:52:02.630Z,67.57
2022-10-23T22:54:31.656Z,67.52
2022-10-23T22:56:59.606Z,67.51
2022-10-23T22:59:27.368Z,67.54
2022-10-23T23:01:55.165Z,67.37
2022-10-23T23:04:39.350Z,67.39
2022-10-23T23:07:12.019Z,67.38
2022-10-23T23:09:42.616Z,67.36
2022-10-23T23:12:11.710Z,67.32
2022-10-23T23:14:40.150Z,67.26
2022-10-23T23:17:08.392Z,67.16
2022-10-23T23:19:36.569Z,67.20
2022-10-23T23:22:04.841Z,67.13
2022-10-23T23:24:33.301Z,67.06
2022-10-23T23:27:01.066Z,67.06
2022-10-23T23:29:29.690Z,66.99
2022-10-23T23:31:57.848Z,66.99
2022-10-23T23:34:25.998Z,67.03
2022-10-23T23:36:53.846Z,66.84
2022-10-23T23:39:21.802Z,66.76
2022-10-23T23:41:49.981Z,66.75
2022-10-23T23:44:17.827Z,66.80
2022-10-23T23:46:46.173Z,66.69
2022-10-23T23:49:14.390Z,66.53
2022-10-23T23:51:42.216Z,66.41
2022-10-23T23:54:10.096Z,66.32
2022-10-23T23:56:38.219Z,66.20
2022-10-23T23:59:06.075Z,66.16
